Time;durP1;ratioP1;P1;durP2;ratioP2;P2;SDS_P1;SDS_P2;PMS_P1;PMS_P2;Temp;Humidity;BMP_temperature;BMP_pressure;BME280_temperature;BME280_humidity;BME280_pressure;Samples;Min_cycle;Max_cycle;Signal;HPM_P1;HPM_P2
2022/06/28 00:01:49;;;;;;;;;;;;;;;;;;5057397;28;19909;-30
2022/06/28 00:04:15;;;;;;;;;;;;;;;;;;5057159;28;20012;-30
2022/06/28 00:06:41;;;;;;;;;;;;;;;;;;5057597;28;19940;-30
2022/06/28 00:09:07;;;;;;;;;;;;;;;;;;5057518;28;19967;-30
2022/06/28 00:11:33;;;;;;;;;;;;;;;;;;5057196;28;19975;-30
2022/06/28 00:13:59;;;;;;;;;;;;;;;;;;5057079;28;19909;-30
2022/06/28 00:16:25;;;;;;;;;;;;;;;;;;5057131;28;19919;-30
2022/06/28 00:18:51;;;;;;;;;;;;;;;;;;5057701;28;19931;-30
2022/06/28 00:21:17;;;;;;;;;;;;;;;;;;5057338;28;19913;-30
2022/06/28 00:23:43;;;;;;;;;;;;;;;;;;5056986;28;19932;-30
2022/06/28 00:26:09;;;;;;;;;;;;;;;;;;5056014;28;19924;-30
2022/06/28 00:28:35;;;;;;;;;;;;;;;;;;5057108;28;19912;-31
2022/06/28 00:31:01;;;;;;;;;;;;;;;;;;5057176;28;19973;-30
2022/06/28 00:33:26;;;;;;;;;;;;;;;;;;5057338;28;19913;-30
2022/06/28 00:35:52;;;;;;;;;;;;;;;;;;5057122;28;20306;-30
2022/06/28 00:38:18;;;;;;;;;;;;;;;;;;5056978;28;20363;-30
2022/06/28 00:40:44;;;;;;;;;;;;;;;;;;5057041;28;20262;-30
2022/06/28 00:43:10;;;;;;;;;;;;;;;;;;5056612;28;20308;-30
2022/06/28 00:45:36;;;;;;;;;;;;;;;;;;5056671;28;19909;-30
2022/06/28 00:48:02;;;;;;;;;;;;;;;;;;5056593;28;19913;-30
2022/06/28 00:50:28;;;;;;;;;;;;;;;;;;5056292;28;19913;-30
2022/06/28 00:52:54;;;;;;;;;;;;;;;;;;5056146;28;20000;-30
2022/06/28 00:55:20;;;;;;;;;;;;;;;;;;5056500;28;19948;-30
2022/06/28 00:57:46;;;;;;;;;;;;;;;;;;5056445;28;19948;-30
2022/06/28 01:00:12;;;;;;;;;;;;;;;;;;5056377;28;20011;-30
2022/06/28 01:02:38;;;;;;;;;;;;;;;;;;5056887;28;19912;-30
2022/06/28 01:05:04;;;;;;;;;;;;;;;;;;5056803;28;20255;-31
2022/06/28 01:07:30;;;;;;;;;;;;;;;;;;5056113;28;20362;-30
2022/06/28 01:09:56;;;;;;;;;;;;;;;;;;5056346;28;19924;-30
2022/06/28 01:12:22;;;;;;;;;;;;;;;;;;5056045;28;19991;-31
2022/06/28 01:14:48;;;;;;;;;;;;;;;;;;5056058;28;20271;-30
2022/06/28 01:17:14;;;;;;;;;;;;;;;;;;5056005;28;19920;-30
2022/06/28 01:19:40;;;;;;;;;;;;;;;;;;5056202;28;20423;-31
2022/06/28 01:22:06;;;;;;;;;;;;;;;;;;5056508;28;19923;-30
2022/06/28 01:24:32;;;;;;;;;;;;;;;;;;5055833;28;19995;-31
2022/06/28 01:26:58;;;;;;;;;;;;;;;;;;5055846;28;20244;-30
2022/06/28 01:29:24;;;;;;;;;;;;;;;;;;5055643;28;19924;-31
2022/06/28 01:31:50;;;;;;;;;;;;;;;;;;5055653;28;19913;-30
2022/06/28 01:34:16;;;;;;;;;;;;;;;;;;5055719;28;19982;-30
2022/06/28 01:36:42;;;;;;;;;;;;;;;;;;5055905;28;20239;-30
2022/06/28 01:39:08;;;;;;;;;;;;;;;;;;5055608;28;19916;-30
2022/06/28 01:41:34;;;;;;;;;;;;;;;;;;5055526;28;19970;-30
2022/06/28 01:44:00;;;;;;;;;;;;;;;;;;5055453;28;19990;-31
2022/06/28 01:46:26;;;;;;;;;;;;;;;;;;5055415;28;19966;-31
2022/06/28 01:48:52;;;;;;;;;;;;;;;;;;5055923;28;19912;-30
2022/06/28 01:51:18;;;;;;;;;;;;;;;;;;5055350;28;20307;-30
2022/06/28 01:53:44;;;;;;;;;;;;;;;;;;5055350;28;19908;-30
2022/06/28 01:56:10;;;;;;;;;;;;;;;;;;5054363;28;19996;-30
2022/06/28 01:58:36;;;;;;;;;;;;;;;;;;5055538;28;19919;-30
2022/06/28 02:01:02;;;;;;;;;;;;;;;;;;5055511;28;20310;-30
2022/06/28 02:03:28;;;;;;;;;;;;;;;;;;5054270;28;19916;-30
2022/06/28 02:05:54;;;;;;;;;;;;;;;;;;5055186;28;20236;-30
2022/06/28 02:08:20;;;;;;;;;;;;;;;;;;5054138;28;20004;-30
2022/06/28 02:10:46;;;;;;;;;;;;;;;;;;5055159;28;19909;-30
2022/06/28 02:13:12;;;;;;;;;;;;;;;;;;5055571;28;20057;-30
2022/06/28 02:15:38;;;;;;;;;;;;;;;;;;5055364;28;19973;-30
2022/06/28 02:18:04;;;;;;;;;;;;;;;;;;5055362;28;19920;-30
2022/06/28 02:20:30;;;;;;;;;;;;;;;;;;5054066;28;20386;-29
2022/06/28 02:22:56;;;;;;;;;;;;;;;;;;5054921;28;19909;-30
2022/06/28 02:25:22;;;;;;;;;;;;;;;;;;5055846;28;19916;-30
2022/06/28 02:27:48;;;;;;;;;;;;;;;;;;5055234;28;19913;-29
2022/06/28 02:30:14;;;;;;;;;;;;;;;;;;5055722;28;19912;-30
2022/06/28 02:32:40;;;;;;;;;;;;;;;;;;5055202;28;19912;-30
2022/06/28 02:40:35;;;;;;;;;;;;;;;;;;5054913;28;20000;-30
2022/06/28 02:43:01;;;;;;;;;;;;;;;;;;5054747;28;19923;-30
2022/06/28 02:45:27;;;;;;;;;;;;;;;;;;5054864;28;20343;-30
2022/06/28 02:47:53;;;;;;;;;;;;;;;;;;5054800;28;19944;-30
2022/06/28 02:50:19;;;;;;;;;;;;;;;;;;5054758;28;19962;-30
2022/06/28 02:52:45;;;;;;;;;;;;;;;;;;5054658;28;19913;-30
2022/06/28 02:55:11;;;;;;;;;;;;;;;;;;5055318;28;19916;-30
2022/06/28 02:57:37;;;;;;;;;;;;;;;;;;5054619;28;20409;-30
2022/06/28 03:00:03;;;;;;;;;;;;;;;;;;5054720;28;19909;-30
2022/06/28 03:02:29;;;;;;;;;;;;;;;;;;5054617;28;19962;-30
2022/06/28 03:04:55;;;;;;;;;;;;;;;;;;5054505;28;20327;-30
2022/06/28 03:07:21;;;;;;;;;;;;;;;;;;5054543;28;19921;-30
2022/06/28 03:09:47;;;;;;;;;;;;;;;;;;5054537;28;19920;-30
2022/06/28 03:12:13;;;;;;;;;;;;;;;;;;5054464;28;19913;-30
2022/06/28 03:14:38;;;;;;;;;;;;;;;;;;5055957;28;20004;-30
2022/06/28 03:17:04;;;;;;;;;;;;;;;;;;5058252;28;19913;-30
2022/06/28 03:19:30;;;;;;;;;;;;;;;;;;5058264;28;19916;-30
2022/06/28 03:21:56;;;;;;;;;;;;;;;;;;5058187;28;20336;-30
2022/06/28 03:24:22;;;;;;;;;;;;;;;;;;5058752;28;19920;-30
2022/06/28 03:26:48;;;;;;;;;;;;;;;;;;5058403;28;19912;-30
2022/06/28 03:29:14;;;;;;;;;;;;;;;;;;5058271;28;19912;-30
2022/06/28 03:31:40;;;;;;;;;;;;;;;;;;5058269;28;19978;-29
2022/06/28 03:34:06;;;;;;;;;;;;;;;;;;5058024;28;19939;-30
2022/06/28 03:36:32;;;;;;;;;;;;;;;;;;5057924;28;20254;-30
2022/06/28 03:38:58;;;;;;;;;;;;;;;;;;5057894;28;19916;-29
2022/06/28 03:41:24;;;;;;;;;;;;;;;;;;5057801;28;19923;-30
2022/06/28 03:43:50;;;;;;;;;;;;;;;;;;5057763;28;19908;-30
2022/06/28 03:46:16;;;;;;;;;;;;;;;;;;5057779;28;19913;-30
2022/06/28 03:48:42;;;;;;;;;;;;;;;;;;5057882;28;20302;-30
2022/06/28 03:51:08;;;;;;;;;;;;;;;;;;5057897;28;19920;-30
2022/06/28 03:53:34;;;;;;;;;;;;;;;;;;5058226;28;20243;-30
2022/06/28 03:56:00;;;;;;;;;;;;;;;;;;5057578;28;19924;-30
2022/06/28 03:58:26;;;;;;;;;;;;;;;;;;5057832;28;19920;-30
2022/06/28 04:00:52;;;;;;;;;;;;;;;;;;5057471;28;19970;-30
2022/06/28 04:03:19;;;;;;;;;;;;;;;;;;5057295;28;20003;-30
2022/06/28 04:05:44;;;;;;;;;;;;;;;;;;5057471;28;19940;-30
2022/06/28 04:08:10;;;;;;;;;;;;;;;;;;5057338;28;19963;-30
2022/06/28 04:10:36;;;;;;;;;;;;;;;;;;5056915;28;19921;-30
2022/06/28 04:13:02;;;;;;;;;;;;;;;;;;5057049;28;19908;-30
2022/06/28 04:15:28;;;;;;;;;;;;;;;;;;5057267;28;19923;-29
2022/06/28 04:17:54;;;;;;;;;;;;;;;;;;5057205;28;20352;-30
2022/06/28 04:20:20;;;;;;;;;;;;;;;;;;5057324;28;19913;-30
2022/06/28 04:22:46;;;;;;;;;;;;;;;;;;5057141;28;20248;-30
2022/06/28 04:25:12;;;;;;;;;;;;;;;;;;5056614;28;20003;-30
2022/06/28 04:27:38;;;;;;;;;;;;;;;;;;5056281;28;19995;-30
2022/06/28 04:30:04;;;;;;;;;;;;;;;;;;5056891;28;19917;-29
2022/06/28 04:32:30;;;;;;;;;;;;;;;;;;5057187;28;20386;-29
2022/06/28 04:34:56;;;;;;;;;;;;;;;;;;5056671;28;19920;-30
2022/06/28 04:37:22;;;;;;;;;;;;;;;;;;5056541;28;19913;-30
2022/06/28 04:39:48;;;;;;;;;;;;;;;;;;5056338;28;19905;-29
2022/06/28 04:42:14;;;;;;;;;;;;;;;;;;5056095;28;19952;-30
2022/06/28 04:44:41;;;;;;;;;;;;;;;;;;5056808;28;20339;-30
2022/06/28 04:47:07;;;;;;;;;;;;;;;;;;5056192;28;20329;-30
2022/06/28 04:49:33;;;;;;;;;;;;;;;;;;5056030;28;19917;-30
2022/06/28 04:51:59;;;;;;;;;;;;;;;;;;5056360;28;19913;-30
2022/06/28 04:54:25;;;;;;;;;;;;;;;;;;5056166;28;20237;-30
2022/06/28 04:56:52;;;;;;;;;;;;;;;;;;5055990;28;20030;-30
2022/06/28 04:59:18;;;;;;;;;;;;;;;;;;5056193;28;19916;-30
2022/06/28 05:01:44;;;;;;;;;;;;;;;;;;5055882;28;19912;-30
2022/06/28 05:04:10;;;;;;;;;;;;;;;;;;5055817;28;20306;-30
2022/06/28 05:06:36;;;;;;;;;;;;;;;;;;5055870;28;20051;-30
2022/06/28 05:09:02;;;;;;;;;;;;;;;;;;5055692;28;19951;-30
2022/06/28 05:11:29;;;;;;;;;;;;;;;;;;5055872;28;19918;-30
2022/06/28 05:13:55;;;;;;;;;;;;;;;;;;5055802;28;19913;-30
2022/06/28 05:16:21;;;;;;;;;;;;;;;;;;5055659;28;20419;-30
2022/06/28 05:18:47;;;;;;;;;;;;;;;;;;5055434;28;19917;-30
2022/06/28 05:21:13;;;;;;;;;;;;;;;;;;5055319;28;19966;-30
2022/06/28 05:23:39;;;;;;;;;;;;;;;;;;5055365;28;19909;-30
2022/06/28 05:26:05;;;;;;;;;;;;;;;;;;5055537;28;19912;-30
2022/06/28 05:28:31;;;;;;;;;;;;;;;;;;5055269;28;20262;-30
2022/06/28 05:30:57;;;;;;;;;;;;;;;;;;5055230;28;19912;-30
2022/06/28 05:33:23;;;;;;;;;;;;;;;;;;5055166;28;20232;-29
2022/06/28 05:35:49;;;;;;;;;;;;;;;;;;5055099;28;19913;-30
2022/06/28 05:38:16;;;;;;;;;;;;;;;;;;5054132;28;20059;-30
2022/06/28 05:40:42;;;;;;;;;;;;;;;;;;5055156;28;19995;-30
2022/06/28 05:43:08;;;;;;;;;;;;;;;;;;5055074;28;20347;-31
2022/06/28 05:45:34;;;;;;;;;;;;;;;;;;5055972;28;20332;-30
2022/06/28 05:48:00;;;;;;;;;;;;;;;;;;5055232;28;19920;-30
2022/06/28 05:50:26;;;;;;;;;;;;;;;;;;5054992;28;19921;-30
2022/06/28 05:52:52;;;;;;;;;;;;;;;;;;5053798;28;20023;-30
2022/06/28 05:55:18;;;;;;;;;;;;;;;;;;5054829;28;19913;-29
2022/06/28 05:57:44;;;;;;;;;;;;;;;;;;5053667;28;19986;-30
2022/06/28 06:00:10;;;;;;;;;;;;;;;;;;5054594;28;19959;-29
2022/06/28 06:02:36;;;;;;;;;;;;;;;;;;5054367;28;19912;-30
2022/06/28 06:05:02;;;;;;;;;;;;;;;;;;5054550;28;19970;-29
2022/06/28 06:07:29;;;;;;;;;;;;;;;;;;5054577;28;20043;-29
2022/06/28 06:09:55;;;;;;;;;;;;;;;;;;5054885;28;19917;-30
2022/06/28 06:12:21;;;;;;;;;;;;;;;;;;5055156;28;19962;-29
2022/06/28 06:14:47;;;;;;;;;;;;;;;;;;5054707;28;20416;-30
2022/06/28 06:17:13;;;;;;;;;;;;;;;;;;5054571;28;19917;-30
2022/06/28 06:19:39;;;;;;;;;;;;;;;;;;5054566;28;20032;-30
2022/06/28 06:22:05;;;;;;;;;;;;;;;;;;5054398;28;19924;-29
2022/06/28 06:24:31;;;;;;;;;;;;;;;;;;5054942;28;19952;-29
2022/06/28 06:26:57;;;;;;;;;;;;;;;;;;5054488;28;19917;-29
2022/06/28 06:29:23;;;;;;;;;;;;;;;;;;5055235;28;19912;-29
2022/06/28 06:31:49;;;;;;;;;;;;;;;;;;5054368;28;19920;-29
2022/06/28 06:34:15;;;;;;;;;;;;;;;;;;5054472;28;19920;-29
2022/06/28 06:36:41;;;;;;;;;;;;;;;;;;5054378;28;20363;-30
2022/06/28 06:39:07;;;;;;;;;;;;;;;;;;5054453;28;20310;-30
2022/06/28 06:41:33;;;;;;;;;;;;;;;;;;5054233;28;19913;-30
2022/06/28 06:43:59;;;;;;;;;;;;;;;;;;5054170;28;19994;-30
2022/06/28 06:46:25;;;;;;;;;;;;;;;;;;5054253;28;19924;-30
2022/06/28 06:48:51;;;;;;;;;;;;;;;;;;5053744;28;19920;-30
2022/06/28 06:51:17;;;;;;;;;;;;;;;;;;5058598;28;19920;-30
2022/06/28 06:53:43;;;;;;;;;;;;;;;;;;5058351;28;19909;-30
2022/06/28 06:56:09;;;;;;;;;;;;;;;;;;5058628;28;20351;-30
2022/06/28 06:58:35;;;;;;;;;;;;;;;;;;5058838;28;19939;-30
2022/06/28 07:01:01;;;;;;;;;;;;;;;;;;5058158;28;19917;-30
2022/06/28 07:03:27;;;;;;;;;;;;;;;;;;5058036;28;20019;-30
2022/06/28 07:05:53;;;;;;;;;;;;;;;;;;5057947;28;20010;-30
2022/06/28 07:08:19;;;;;;;;;;;;;;;;;;5058294;28;19912;-31
2022/06/28 07:10:45;;;;;;;;;;;;;;;;;;5057813;28;20375;-30
2022/06/28 07:13:11;;;;;;;;;;;;;;;;;;5057836;28;19920;-30
2022/06/28 07:15:37;;;;;;;;;;;;;;;;;;5058426;28;19944;-30
2022/06/28 07:18:04;;;;;;;;;;;;;;;;;;5058032;28;20228;-30
2022/06/28 07:20:30;;;;;;;;;;;;;;;;;;5058237;28;19908;-30
2022/06/28 07:22:56;;;;;;;;;;;;;;;;;;5057613;28;19916;-30
2022/06/28 07:25:22;;;;;;;;;;;;;;;;;;5057836;28;20062;-30
2022/06/28 07:27:48;;;;;;;;;;;;;;;;;;5057673;28;19920;-29
2022/06/28 07:30:14;;;;;;;;;;;;;;;;;;5058006;28;20002;-30
2022/06/28 07:32:40;;;;;;;;;;;;;;;;;;5057315;28;19924;-30
2022/06/28 07:35:06;;;;;;;;;;;;;;;;;;5056354;28;19912;-30
2022/06/28 07:37:32;;;;;;;;;;;;;;;;;;5057609;28;20314;-31
2022/06/28 07:39:58;;;;;;;;;;;;;;;;;;5057243;28;19908;-30
2022/06/28 07:42:24;;;;;;;;;;;;;;;;;;5057392;28;20304;-30
2022/06/28 07:44:50;;;;;;;;;;;;;;;;;;5057494;28;19909;-30
2022/06/28 07:47:16;;;;;;;;;;;;;;;;;;5057726;28;19925;-30
2022/06/28 07:52:36;;;;;;;;;;;;;;;;;;5057365;28;20016;-30
2022/06/28 07:55:02;;;;;;;;;;;;;;;;;;5057353;28;20256;-30
2022/06/28 07:57:28;;;;;;;;;;;;;;;;;;5056973;28;20008;-30
2022/06/28 07:59:54;;;;;;;;;;;;;;;;;;5056687;28;20299;-30
2022/06/28 08:02:20;;;;;;;;;;;;;;;;;;5055797;28;20348;-30
2022/06/28 08:04:47;;;;;;;;;;;;;;;;;;5056606;28;19924;-30
2022/06/28 08:07:13;;;;;;;;;;;;;;;;;;5057115;28;20251;-30
2022/06/28 08:09:40;;;;;;;;;;;;;;;;;;5056656;28;19917;-30
2022/06/28 08:12:05;;;;;;;;;;;;;;;;;;5056577;28;19916;-30
2022/06/28 08:14:32;;;;;;;;;;;;;;;;;;5056539;28;19920;-30
2022/06/28 08:16:58;;;;;;;;;;;;;;;;;;5056954;28;19912;-30
2022/06/28 08:19:24;;;;;;;;;;;;;;;;;;5056597;28;19909;-30
2022/06/28 08:21:50;;;;;;;;;;;;;;;;;;5056995;28;20247;-30
2022/06/28 08:24:16;;;;;;;;;;;;;;;;;;5056790;28;20251;-30
2022/06/28 08:26:42;;;;;;;;;;;;;;;;;;5056352;28;19917;-30
2022/06/28 08:29:08;;;;;;;;;;;;;;;;;;5056784;28;19913;-30
2022/06/28 08:31:34;;;;;;;;;;;;;;;;;;5056582;28;19924;-30
2022/06/28 08:34:00;;;;;;;;;;;;;;;;;;5056333;28;20334;-30
2022/06/28 08:36:26;;;;;;;;;;;;;;;;;;5056306;28;19956;-30
2022/06/28 08:38:52;;;;;;;;;;;;;;;;;;5056396;28;20232;-30
2022/06/28 08:41:18;;;;;;;;;;;;;;;;;;5056320;28;19919;-30
2022/06/28 08:43:44;;;;;;;;;;;;;;;;;;5056307;28;19920;-30
2022/06/28 08:46:10;;;;;;;;;;;;;;;;;;5056386;28;19913;-30
2022/06/28 08:48:36;;;;;;;;;;;;;;;;;;5056280;28;19909;-30
2022/06/28 08:51:03;;;;;;;;;;;;;;;;;;5056854;28;19928;-30
2022/06/28 08:53:30;;;;;;;;;;;;;;;;;;5056264;28;19971;-30
2022/06/28 08:55:55;;;;;;;;;;;;;;;;;;5056727;28;20320;-30
2022/06/28 08:58:21;;;;;;;;;;;;;;;;;;5056335;28;20003;-30
2022/06/28 09:00:47;;;;;;;;;;;;;;;;;;5056467;28;19913;-30
2022/06/28 09:03:15;;;;;;;;;;;;;;;;;;5055580;28;20399;-30
2022/06/28 09:05:41;;;;;;;;;;;;;;;;;;5056255;28;19912;-30
2022/06/28 09:08:07;;;;;;;;;;;;;;;;;;5056598;28;20291;-30
2022/06/28 09:10:33;;;;;;;;;;;;;;;;;;5055859;28;20237;-30
2022/06/28 09:12:59;;;;;;;;;;;;;;;;;;5056192;28;19986;-30
2022/06/28 09:15:25;;;;;;;;;;;;;;;;;;5055929;28;20318;-30
2022/06/28 09:17:51;;;;;;;;;;;;;;;;;;5056382;28;19913;-30
2022/06/28 09:20:17;;;;;;;;;;;;;;;;;;5055816;28;19983;-30
2022/06/28 09:22:43;;;;;;;;;;;;;;;;;;5055621;28;20295;-30
2022/06/28 09:25:10;;;;;;;;;;;;;;;;;;5056094;28;19912;-30
2022/06/28 09:27:36;;;;;;;;;;;;;;;;;;5056591;28;20330;-31
2022/06/28 09:30:02;;;;;;;;;;;;;;;;;;5055465;28;19924;-31
2022/06/28 09:32:28;;;;;;;;;;;;;;;;;;5055445;28;19913;-30
2022/06/28 09:34:55;;;;;;;;;;;;;;;;;;5055631;28;19924;-30
2022/06/28 09:37:23;;;;;;;;;;;;;;;;;;5056089;28;19970;-31
2022/06/28 09:39:49;;;;;;;;;;;;;;;;;;5055443;28;19917;-31
2022/06/28 09:42:15;;;;;;;;;;;;;;;;;;5055358;28;19999;-30
2022/06/28 09:44:43;;;;;;;;;;;;;;;;;;5055968;28;19909;-31
2022/06/28 09:47:09;;;;;;;;;;;;;;;;;;5055254;28;19917;-31
2022/06/28 09:49:36;;;;;;;;;;;;;;;;;;5055120;28;19959;-30
2022/06/28 09:52:04;;;;;;;;;;;;;;;;;;5054675;28;20351;-31
2022/06/28 09:54:31;;;;;;;;;;;;;;;;;;5055682;28;19912;-31
2022/06/28 09:56:57;;;;;;;;;;;;;;;;;;5055090;28;19909;-30
2022/06/28 09:59:23;;;;;;;;;;;;;;;;;;5055071;28;20293;-30
2022/06/28 10:01:49;;;;;;;;;;;;;;;;;;5055302;28;20397;-30
2022/06/28 10:04:15;;;;;;;;;;;;;;;;;;5055070;28;20244;-30
2022/06/28 10:06:42;;;;;;;;;;;;;;;;;;5054916;28;19999;-30
2022/06/28 10:09:08;;;;;;;;;;;;;;;;;;5055474;28;19920;-30
2022/06/28 10:15:00;;;;;;;;;;;;;;;;;;5054942;28;19951;-31
2022/06/28 10:17:05;;;;;;;;;;;;;;;;;;5054691;28;20369;-30
2022/06/28 10:19:31;;;;;;;;;;;;;;;;;;5054522;28;19913;-30
2022/06/28 10:21:58;;;;;;;;;;;;;;;;;;5054467;28;19917;-30
2022/06/28 10:24:26;;;;;;;;;;;;;;;;;;5052832;28;19919;-30
2022/06/28 10:26:52;;;;;;;;;;;;;;;;;;5054758;28;20371;-30
2022/06/28 10:29:18;;;;;;;;;;;;;;;;;;5054723;28;19943;-31
2022/06/28 10:31:44;;;;;;;;;;;;;;;;;;5054572;28;19908;-30
2022/06/28 10:34:12;;;;;;;;;;;;;;;;;;5053745;28;19913;-31
2022/06/28 10:36:38;;;;;;;;;;;;;;;;;;5054668;28;19917;-30
2022/06/28 10:39:04;;;;;;;;;;;;;;;;;;5054718;28;19916;-31
2022/06/28 10:41:30;;;;;;;;;;;;;;;;;;5054673;28;19947;-30
2022/06/28 10:43:56;;;;;;;;;;;;;;;;;;5054570;28;19909;-30
2022/06/28 10:46:22;;;;;;;;;;;;;;;;;;5054596;28;20263;-30
2022/06/28 10:48:48;;;;;;;;;;;;;;;;;;5053543;28;19909;-30
2022/06/28 10:51:14;;;;;;;;;;;;;;;;;;5055170;28;19988;-31
2022/06/28 10:53:40;;;;;;;;;;;;;;;;;;5054496;28;20339;-31
2022/06/28 10:56:06;;;;;;;;;;;;;;;;;;5053546;28;20359;-30
2022/06/28 10:58:32;;;;;;;;;;;;;;;;;;5055025;28;19920;-30
2022/06/28 11:00:58;;;;;;;;;;;;;;;;;;5054723;28;19912;-30
2022/06/28 11:03:24;;;;;;;;;;;;;;;;;;5053161;28;20319;-30
2022/06/28 11:05:50;;;;;;;;;;;;;;;;;;5054461;28;19913;-30
2022/06/28 11:08:16;;;;;;;;;;;;;;;;;;5054680;28;19999;-30
2022/06/28 11:10:42;;;;;;;;;;;;;;;;;;5054341;28;19971;-30
2022/06/28 11:13:09;;;;;;;;;;;;;;;;;;5054430;28;19913;-30
2022/06/28 11:15:39;;;;;;;;;;;;;;;;;;5054663;28;20347;-30
2022/06/28 11:18:05;;;;;;;;;;;;;;;;;;5054393;28;19937;-31
2022/06/28 11:20:31;;;;;;;;;;;;;;;;;;5054732;28;19924;-29
2022/06/28 11:22:57;;;;;;;;;;;;;;;;;;5054055;28;19919;-30
2022/06/28 11:25:23;;;;;;;;;;;;;;;;;;5054268;28;19919;-30
2022/06/28 11:27:51;;;;;;;;;;;;;;;;;;5054085;28;19978;-30
2022/06/28 11:30:17;;;;;;;;;;;;;;;;;;5054088;28;19912;-31
2022/06/28 11:32:44;;;;;;;;;;;;;;;;;;5054255;28;19916;-31
2022/06/28 11:35:10;;;;;;;;;;;;;;;;;;5054739;28;19913;-31
2022/06/28 11:37:36;;;;;;;;;;;;;;;;;;5057957;28;20240;-31
2022/06/28 11:40:03;;;;;;;;;;;;;;;;;;5057701;28;19913;-31
2022/06/28 11:42:30;;;;;;;;;;;;;;;;;;5057662;28;20344;-31
2022/06/28 11:44:56;;;;;;;;;;;;;;;;;;5057666;28;19916;-31
2022/06/28 11:47:23;;;;;;;;;;;;;;;;;;5057584;28;19928;-31
2022/06/28 11:49:50;;;;;;;;;;;;;;;;;;5056459;28;20364;-31
2022/06/28 11:52:16;;;;;;;;;;;;;;;;;;5057320;28;19947;-31
2022/06/28 11:54:43;;;;;;;;;;;;;;;;;;5057519;28;20355;-31
2022/06/28 11:57:09;;;;;;;;;;;;;;;;;;5057748;28;20310;-30
2022/06/28 11:59:35;;;;;;;;;;;;;;;;;;5057753;28;19909;-30
2022/06/28 12:02:01;;;;;;;;;;;;;;;;;;5057596;28;19917;-30
2022/06/28 12:04:27;;;;;;;;;;;;;;;;;;5057180;28;20018;-30
2022/06/28 12:06:53;;;;;;;;;;;;;;;;;;5057193;28;19913;-30
2022/06/28 12:09:19;;;;;;;;;;;;;;;;;;5057289;28;19917;-30
2022/06/28 12:11:45;;;;;;;;;;;;;;;;;;5056955;28;20351;-30
2022/06/28 12:14:13;;;;;;;;;;;;;;;;;;5057614;28;19908;-31
2022/06/28 12:16:40;;;;;;;;;;;;;;;;;;5057294;28;20021;-30
2022/06/28 12:19:06;;;;;;;;;;;;;;;;;;5056926;28;19913;-31
2022/06/28 12:21:32;;;;;;;;;;;;;;;;;;5056934;28;19917;-29
2022/06/28 12:23:58;;;;;;;;;;;;;;;;;;5056779;28;19924;-30
2022/06/28 12:26:24;;;;;;;;;;;;;;;;;;5056873;28;20006;-29
2022/06/28 12:28:50;;;;;;;;;;;;;;;;;;5057267;28;19909;-30
2022/06/28 12:31:17;;;;;;;;;;;;;;;;;;5056814;28;19923;-30
2022/06/28 12:33:43;;;;;;;;;;;;;;;;;;5056716;28;19913;-30
2022/06/28 12:36:09;;;;;;;;;;;;;;;;;;5057117;28;19924;-30
2022/06/28 12:38:35;;;;;;;;;;;;;;;;;;5056657;28;20348;-30
2022/06/28 12:41:01;;;;;;;;;;;;;;;;;;5056642;28;20312;-30
2022/06/28 12:43:27;;;;;;;;;;;;;;;;;;5056460;28;19913;-30
2022/06/28 12:45:53;;;;;;;;;;;;;;;;;;5055418;28;20256;-30
2022/06/28 12:48:19;;;;;;;;;;;;;;;;;;5055513;28;19916;-30
2022/06/28 12:50:45;;;;;;;;;;;;;;;;;;5055239;28;20003;-30
2022/06/28 12:53:11;;;;;;;;;;;;;;;;;;5055113;28;19917;-30
2022/06/28 12:55:37;;;;;;;;;;;;;;;;;;5056057;28;19909;-30
2022/06/28 12:58:03;;;;;;;;;;;;;;;;;;5056388;28;20017;-30
2022/06/28 13:00:29;;;;;;;;;;;;;;;;;;5056818;28;19955;-30
2022/06/28 13:02:55;;;;;;;;;;;;;;;;;;5055824;28;19913;-31
2022/06/28 13:05:23;;;;;;;;;;;;;;;;;;5056394;28;20248;-30
2022/06/28 13:07:49;;;;;;;;;;;;;;;;;;5056236;28;19987;-30
2022/06/28 13:10:15;;;;;;;;;;;;;;;;;;5056237;28;20347;-30
2022/06/28 13:12:41;;;;;;;;;;;;;;;;;;5055902;28;19913;-30
2022/06/28 13:15:07;;;;;;;;;;;;;;;;;;5056150;28;20054;-30
2022/06/28 13:17:33;;;;;;;;;;;;;;;;;;5056344;28;19959;-30
2022/06/28 13:20:00;;;;;;;;;;;;;;;;;;5055757;28;19913;-30
2022/06/28 13:22:26;;;;;;;;;;;;;;;;;;5055648;28;19913;-30
2022/06/28 13:24:52;;;;;;;;;;;;;;;;;;5055747;28;20007;-30
2022/06/28 13:27:18;;;;;;;;;;;;;;;;;;5055602;28;19952;-30
2022/06/28 13:29:44;;;;;;;;;;;;;;;;;;5056103;28;20335;-29
2022/06/28 13:32:10;;;;;;;;;;;;;;;;;;5055514;28;20004;-29
2022/06/28 13:34:36;;;;;;;;;;;;;;;;;;5055464;28;19908;-29
2022/06/28 13:37:03;;;;;;;;;;;;;;;;;;5055706;28;19916;-30
2022/06/28 13:39:29;;;;;;;;;;;;;;;;;;5055510;28;20067;-29
2022/06/28 13:41:56;;;;;;;;;;;;;;;;;;5055384;28;19996;-30
2022/06/28 13:44:22;;;;;;;;;;;;;;;;;;5055901;28;19999;-29
2022/06/28 13:46:48;;;;;;;;;;;;;;;;;;5055361;28;19913;-29
2022/06/28 13:49:14;;;;;;;;;;;;;;;;;;5055270;28;20359;-30
2022/06/28 13:51:40;;;;;;;;;;;;;;;;;;5055261;28;19992;-29
2022/06/28 13:54:06;;;;;;;;;;;;;;;;;;5055244;28;20374;-29
2022/06/28 13:56:32;;;;;;;;;;;;;;;;;;5055342;28;19956;-30
2022/06/28 13:58:58;;;;;;;;;;;;;;;;;;5055169;28;19913;-30
2022/06/28 14:01:24;;;;;;;;;;;;;;;;;;5055136;28;19933;-29
2022/06/28 14:03:50;;;;;;;;;;;;;;;;;;5054867;28;19917;-30
2022/06/28 14:06:16;;;;;;;;;;;;;;;;;;5054990;28;19913;-30
2022/06/28 14:08:42;;;;;;;;;;;;;;;;;;5055403;28;19913;-30
2022/06/28 14:11:08;;;;;;;;;;;;;;;;;;5055696;28;19913;-30
2022/06/28 14:13:34;;;;;;;;;;;;;;;;;;5054882;28;19909;-30
2022/06/28 14:16:00;;;;;;;;;;;;;;;;;;5053913;28;19916;-30
2022/06/28 14:18:27;;;;;;;;;;;;;;;;;;5055363;28;20021;-30
2022/06/28 14:20:53;;;;;;;;;;;;;;;;;;5054792;28;19913;-30
2022/06/28 14:23:19;;;;;;;;;;;;;;;;;;5054725;28;20050;-30
2022/06/28 14:25:45;;;;;;;;;;;;;;;;;;5054765;28;20249;-30
2022/06/28 14:28:11;;;;;;;;;;;;;;;;;;5054838;28;20003;-30
2022/06/28 14:30:37;;;;;;;;;;;;;;;;;;5055043;28;19913;-30
2022/06/28 14:33:03;;;;;;;;;;;;;;;;;;5053702;28;19920;-30
2022/06/28 14:35:29;;;;;;;;;;;;;;;;;;5055320;28;19909;-30
2022/06/28 14:37:55;;;;;;;;;;;;;;;;;;5054706;28;19913;-31
2022/06/28 14:40:22;;;;;;;;;;;;;;;;;;5054840;28;19923;-30
2022/06/28 14:42:48;;;;;;;;;;;;;;;;;;5054670;28;19913;-30
2022/06/28 14:45:14;;;;;;;;;;;;;;;;;;5054691;28;19958;-29
2022/06/28 14:47:41;;;;;;;;;;;;;;;;;;5055123;28;19977;-30
2022/06/28 14:50:07;;;;;;;;;;;;;;;;;;5054480;28;19931;-30
2022/06/28 14:52:33;;;;;;;;;;;;;;;;;;5054839;28;19923;-30
2022/06/28 14:55:00;;;;;;;;;;;;;;;;;;5054622;28;19908;-30
2022/06/28 14:57:26;;;;;;;;;;;;;;;;;;5054432;28;19955;-30
2022/06/28 14:59:52;;;;;;;;;;;;;;;;;;5054477;28;19913;-30
2022/06/28 15:02:18;;;;;;;;;;;;;;;;;;5054340;28;20408;-31
2022/06/28 15:04:44;;;;;;;;;;;;;;;;;;5054180;28;20310;-30
2022/06/28 15:07:10;;;;;;;;;;;;;;;;;;5054623;28;19917;-30
2022/06/28 15:09:37;;;;;;;;;;;;;;;;;;5054510;28;19967;-30
2022/06/28 15:12:04;;;;;;;;;;;;;;;;;;5057901;28;19929;-30
2022/06/28 15:14:30;;;;;;;;;;;;;;;;;;5058084;28;19915;-30
2022/06/28 15:16:57;;;;;;;;;;;;;;;;;;5058225;28;19924;-30
2022/06/28 15:19:23;;;;;;;;;;;;;;;;;;5058676;28;19920;-30
2022/06/28 15:32:47;;;;;;;;;;;;;;;;;;5058051;28;19940;-30
2022/06/28 15:35:13;;;;;;;;;;;;;;;;;;5058753;28;19923;-30
2022/06/28 15:37:39;;;;;;;;;;;;;;;;;;5057839;28;19913;-30
2022/06/28 15:40:05;;;;;;;;;;;;;;;;;;5058167;28;19924;-30
2022/06/28 15:42:32;;;;;;;;;;;;;;;;;;5057660;28;19967;-30
2022/06/28 15:44:58;;;;;;;;;;;;;;;;;;5057914;28;19992;-30
2022/06/28 15:47:24;;;;;;;;;;;;;;;;;;5057615;28;19952;-30
2022/06/28 15:49:50;;;;;;;;;;;;;;;;;;5057515;28;20267;-30
2022/06/28 15:52:16;;;;;;;;;;;;;;;;;;5057331;28;19920;-29
2022/06/28 15:54:42;;;;;;;;;;;;;;;;;;5057402;28;20240;-30
2022/06/28 15:57:08;;;;;;;;;;;;;;;;;;5057347;28;19987;-31
2022/06/28 15:59:34;;;;;;;;;;;;;;;;;;5057394;28;19995;-30
2022/06/28 16:02:00;;;;;;;;;;;;;;;;;;5057804;28;20003;-30
2022/06/28 16:04:26;;;;;;;;;;;;;;;;;;5057088;28;19952;-29
2022/06/28 16:06:52;;;;;;;;;;;;;;;;;;5057237;28;20259;-30
2022/06/28 16:09:18;;;;;;;;;;;;;;;;;;5057455;28;19985;-30
2022/06/28 16:11:44;;;;;;;;;;;;;;;;;;5057309;28;19912;-29
2022/06/28 16:14:10;;;;;;;;;;;;;;;;;;5057313;28;19974;-30
2022/06/28 16:16:36;;;;;;;;;;;;;;;;;;5056873;28;19920;-29
2022/06/28 16:19:02;;;;;;;;;;;;;;;;;;5057417;28;19912;-29
2022/06/28 16:21:28;;;;;;;;;;;;;;;;;;5055857;28;20422;-29
2022/06/28 16:23:54;;;;;;;;;;;;;;;;;;5056328;28;19966;-29
2022/06/28 16:26:20;;;;;;;;;;;;;;;;;;5056994;28;19913;-29
2022/06/28 16:28:46;;;;;;;;;;;;;;;;;;5057018;28;19909;-29
2022/06/28 16:31:12;;;;;;;;;;;;;;;;;;5057241;28;19999;-29
2022/06/28 16:33:38;;;;;;;;;;;;;;;;;;5056715;28;19990;-30
2022/06/28 16:36:04;;;;;;;;;;;;;;;;;;5055790;28;19909;-30
2022/06/28 16:38:30;;;;;;;;;;;;;;;;;;5056608;28;19919;-30
2022/06/28 16:40:56;;;;;;;;;;;;;;;;;;5056548;28;19923;-30
2022/06/28 16:43:22;;;;;;;;;;;;;;;;;;5056678;28;19912;-30
2022/06/28 16:45:48;;;;;;;;;;;;;;;;;;5057230;28;20212;-30
2022/06/28 16:48:14;;;;;;;;;;;;;;;;;;5056407;28;19970;-30
2022/06/28 16:50:40;;;;;;;;;;;;;;;;;;5056300;28;19928;-30
2022/06/28 16:53:06;;;;;;;;;;;;;;;;;;5056425;28;19913;-30
2022/06/28 16:55:32;;;;;;;;;;;;;;;;;;5056758;28;20335;-31
2022/06/28 16:57:58;;;;;;;;;;;;;;;;;;5056249;28;19913;-30
2022/06/28 17:00:24;;;;;;;;;;;;;;;;;;5056163;28;19913;-30